Time;durP1;ratioP1;P1;durP2;ratioP2;P2;SDS_P1;SDS_P2;PMS_P1;PMS_P2;Temp;Humidity;BMP_temperature;BMP_pressure;BME280_temperature;BME280_humidity;BME280_pressure;Samples;Min_cycle;Max_cycle;Signal;HPM_P1;HPM_P2
2022/07/09 00:00:51;;;;;;;5.30;3.10;;;;;;;;;;5095452;28;20451;-72
2022/07/09 00:03:18;;;;;;;4.33;3.30;;;;;;;;;;5095402;28;20816;-72
2022/07/09 00:05:45;;;;;;;4.27;3.10;;;;;;;;;;5095238;28;20482;-72
2022/07/09 00:08:12;;;;;;;8.23;4.00;;;;;;;;;;5095404;28;20454;-72
2022/07/09 00:10:39;;;;;;;3.97;3.53;;;;;;;;;;5095324;28;20453;-72
2022/07/09 00:13:07;;;;;;;5.47;3.77;;;;;;;;;;5095085;28;20470;-72
2022/07/09 00:15:34;;;;;;;10.33;3.90;;;;;;;;;;5095421;28;20808;-72
2022/07/09 00:18:02;;;;;;;3.50;3.20;;;;;;;;;;5095217;28;20457;-72
2022/07/09 00:20:29;;;;;;;3.67;3.20;;;;;;;;;;5095008;28;20465;-72
2022/07/09 00:22:56;;;;;;;6.90;3.73;;;;;;;;;;5094839;28;20470;-72
2022/07/09 00:25:23;;;;;;;7.07;3.90;;;;;;;;;;5094466;28;21011;-71
2022/07/09 00:27:50;;;;;;;5.07;3.47;;;;;;;;;;5094982;28;20450;-71
2022/07/09 00:30:18;;;;;;;5.80;3.90;;;;;;;;;;5094791;28;20451;-71
2022/07/09 00:32:45;;;;;;;9.97;3.87;;;;;;;;;;5095068;28;20972;-71
2022/07/09 00:35:13;;;;;;;6.40;3.60;;;;;;;;;;5094392;28;20450;-71
2022/07/09 00:37:40;;;;;;;9.83;3.90;;;;;;;;;;5093859;28;20451;-71
2022/07/09 00:40:08;;;;;;;5.83;3.77;;;;;;;;;;5094742;28;20819;-71
2022/07/09 00:42:35;;;;;;;4.33;3.80;;;;;;;;;;5094756;28;20474;-71
2022/07/09 00:45:02;;;;;;;6.17;3.73;;;;;;;;;;5094480;28;20450;-71
2022/07/09 00:47:29;;;;;;;7.73;4.20;;;;;;;;;;5094322;28;20497;-71
2022/07/09 00:49:56;;;;;;;5.80;3.67;;;;;;;;;;5094622;28;20454;-71
2022/07/09 00:52:25;;;;;;;6.27;3.57;;;;;;;;;;5094210;28;20474;-71
2022/07/09 00:54:52;;;;;;;6.43;3.43;;;;;;;;;;5094404;28;20442;-71
2022/07/09 00:57:20;;;;;;;5.83;3.30;;;;;;;;;;5094261;28;20455;-71
2022/07/09 00:59:47;;;;;;;4.20;3.80;;;;;;;;;;5094302;28;20461;-71
2022/07/09 01:02:14;;;;;;;9.10;5.10;;;;;;;;;;5094051;28;20516;-71
2022/07/09 01:04:41;;;;;;;4.30;3.53;;;;;;;;;;5094014;28;20477;-72
2022/07/09 01:07:08;;;;;;;4.50;4.10;;;;;;;;;;5094015;28;20491;-72
2022/07/09 01:09:37;;;;;;;8.23;3.80;;;;;;;;;;5094548;28;20920;-72
2022/07/09 01:12:04;;;;;;;3.90;3.50;;;;;;;;;;5094215;28;20840;-72
2022/07/09 01:14:31;;;;;;;3.93;3.50;;;;;;;;;;5093682;28;20451;-72
2022/07/09 01:17:00;;;;;;;5.97;4.07;;;;;;;;;;5093851;28;20439;-72
2022/07/09 01:19:28;;;;;;;5.67;5.10;;;;;;;;;;5093877;28;20936;-72
2022/07/09 01:21:57;;;;;;;9.83;5.07;;;;;;;;;;5094132;28;20470;-72
2022/07/09 01:24:24;;;;;;;5.30;3.77;;;;;;;;;;5093581;28;20462;-72
2022/07/09 01:26:53;;;;;;;4.63;4.13;;;;;;;;;;5093814;28;20991;-72
2022/07/09 01:29:20;;;;;;;6.00;4.50;;;;;;;;;;5093658;28;20443;-72
2022/07/09 01:31:48;;;;;;;8.50;3.70;;;;;;;;;;5093659;28;20466;-72
2022/07/09 01:34:15;;;;;;;5.70;4.30;;;;;;;;;;5093505;28;20458;-71
2022/07/09 01:36:42;;;;;;;3.80;3.50;;;;;;;;;;5093683;28;20947;-71
2022/07/09 01:39:10;;;;;;;6.37;4.30;;;;;;;;;;5093601;28;20446;-71
2022/07/09 01:41:37;;;;;;;8.90;5.00;;;;;;;;;;5093336;28;20466;-71
2022/07/09 01:44:06;;;;;;;4.73;3.33;;;;;;;;;;5093289;28;20943;-71
2022/07/09 01:46:34;;;;;;;7.53;3.37;;;;;;;;;;5093373;28;20570;-71
2022/07/09 01:49:01;;;;;;;5.00;3.50;;;;;;;;;;5093373;28;20863;-71
2022/07/09 01:51:28;;;;;;;7.73;3.80;;;;;;;;;;5092984;28;21049;-71
2022/07/09 01:53:55;;;;;;;12.23;4.10;;;;;;;;;;5093316;28;20463;-71
2022/07/09 01:56:23;;;;;;;4.27;3.53;;;;;;;;;;5093145;28;20463;-71
2022/07/09 01:58:50;;;;;;;5.27;3.13;;;;;;;;;;5093423;28;20497;-71
2022/07/09 02:01:18;;;;;;;11.60;5.30;;;;;;;;;;5093121;28;20473;-71
2022/07/09 02:03:45;;;;;;;3.80;3.40;;;;;;;;;;5093138;28;20458;-71
2022/07/09 02:06:12;;;;;;;4.63;3.27;;;;;;;;;;5093219;28;20489;-71
2022/07/09 02:08:39;;;;;;;6.30;5.03;;;;;;;;;;5093149;28;20451;-71
2022/07/09 02:11:06;;;;;;;6.67;4.27;;;;;;;;;;5093153;28;20469;-71
2022/07/09 02:13:35;;;;;;;4.17;3.70;;;;;;;;;;5092832;28;20451;-71
2022/07/09 02:16:02;;;;;;;5.77;3.77;;;;;;;;;;5093098;28;20934;-71
2022/07/09 02:18:29;;;;;;;3.57;3.20;;;;;;;;;;5093045;28;20454;-71
2022/07/09 02:20:57;;;;;;;4.27;3.47;;;;;;;;;;5093059;28;20455;-71
2022/07/09 02:23:24;;;;;;;5.53;3.97;;;;;;;;;;5092822;28;20467;-71
2022/07/09 02:25:51;;;;;;;13.63;3.93;;;;;;;;;;5092876;28;20936;-71
2022/07/09 02:28:19;;;;;;;5.30;4.33;;;;;;;;;;5092958;28;20455;-71
2022/07/09 02:30:47;;;;;;;5.23;3.37;;;;;;;;;;5093131;28;20936;-71
2022/07/09 02:33:14;;;;;;;4.30;3.70;;;;;;;;;;5092889;28;20458;-71
2022/07/09 02:35:42;;;;;;;6.23;5.20;;;;;;;;;;5092775;28;20451;-71
2022/07/09 02:38:09;;;;;;;6.73;3.67;;;;;;;;;;5092786;28;20454;-71
2022/07/09 02:40:37;;;;;;;5.50;4.80;;;;;;;;;;5093073;28;20451;-71
2022/07/09 02:43:04;;;;;;;4.60;3.50;;;;;;;;;;5092851;28;20471;-71
2022/07/09 02:45:31;;;;;;;7.53;3.77;;;;;;;;;;5092643;28;20470;-71
2022/07/09 02:47:59;;;;;;;4.43;3.73;;;;;;;;;;5092797;28;20856;-71
2022/07/09 02:50:26;;;;;;;7.37;5.50;;;;;;;;;;5092844;28;20447;-71
2022/07/09 02:52:54;;;;;;;10.47;5.27;;;;;;;;;;5092434;28;20474;-71
2022/07/09 02:55:21;;;;;;;6.63;3.37;;;;;;;;;;5092413;28;20450;-71
2022/07/09 02:57:48;;;;;;;4.70;3.37;;;;;;;;;;5093066;28;20799;-71
2022/07/09 03:00:15;;;;;;;15.27;3.53;;;;;;;;;;5094544;28;20450;-71
2022/07/09 03:02:42;;;;;;;6.20;3.70;;;;;;;;;;5096584;28;20466;-71
2022/07/09 03:05:11;;;;;;;7.60;5.50;;;;;;;;;;5096210;28;20458;-71
2022/07/09 03:07:38;;;;;;;4.13;3.43;;;;;;;;;;5096322;28;20482;-71
2022/07/09 03:10:06;;;;;;;5.43;3.83;;;;;;;;;;5096383;28;20838;-71
2022/07/09 03:12:33;;;;;;;5.33;3.80;;;;;;;;;;5096391;28;20470;-71
2022/07/09 03:15:00;;;;;;;6.47;3.63;;;;;;;;;;5096225;28;20955;-71
2022/07/09 03:17:28;;;;;;;14.57;3.10;;;;;;;;;;5096274;28;20450;-71
2022/07/09 03:19:55;;;;;;;8.00;3.67;;;;;;;;;;5096460;28;20446;-71
2022/07/09 03:22:23;;;;;;;4.83;3.97;;;;;;;;;;5096096;28;20846;-71
2022/07/09 03:24:50;;;;;;;3.90;3.40;;;;;;;;;;5096062;28;20465;-71
2022/07/09 03:27:18;;;;;;;6.17;3.17;;;;;;;;;;5095913;28;20486;-71
2022/07/09 03:29:45;;;;;;;5.40;3.03;;;;;;;;;;5096402;28;20453;-71
2022/07/09 03:32:12;;;;;;;3.83;3.40;;;;;;;;;;5095821;28;20475;-71
2022/07/09 03:34:39;;;;;;;4.63;3.80;;;;;;;;;;5095862;28;20955;-72
2022/07/09 03:37:06;;;;;;;5.93;3.00;;;;;;;;;;5095993;28;20450;-72
2022/07/09 03:39:35;;;;;;;10.80;3.63;;;;;;;;;;5095952;28;20454;-72
2022/07/09 03:42:02;;;;;;;5.10;2.40;;;;;;;;;;5095646;28;20478;-72
2022/07/09 03:44:29;;;;;;;8.53;5.07;;;;;;;;;;5095407;28;20550;-72
2022/07/09 03:46:56;;;;;;;5.23;3.20;;;;;;;;;;5095606;28;20482;-72
2022/07/09 03:49:23;;;;;;;4.40;3.17;;;;;;;;;;5095783;28;20473;-72
2022/07/09 03:51:50;;;;;;;5.53;2.83;;;;;;;;;;5095395;28;20465;-72
2022/07/09 03:54:18;;;;;;;10.80;2.90;;;;;;;;;;5095426;28;20458;-72
2022/07/09 03:56:46;;;;;;;5.27;3.00;;;;;;;;;;5095477;28;20446;-72
2022/07/09 03:59:13;;;;;;;5.33;3.73;;;;;;;;;;5095634;28;20455;-72
2022/07/09 04:01:40;;;;;;;7.50;4.90;;;;;;;;;;5095449;28;20467;-72
2022/07/09 04:04:07;;;;;;;6.00;3.97;;;;;;;;;;5095124;28;20521;-72
2022/07/09 04:06:34;;;;;;;4.73;3.10;;;;;;;;;;5095544;28;20490;-72
2022/07/09 04:09:04;;;;;;;3.80;2.73;;;;;;;;;;5095290;28;20458;-72
2022/07/09 04:11:31;;;;;;;6.87;3.57;;;;;;;;;;5094964;28;20471;-72
2022/07/09 04:14:00;;;;;;;5.50;3.03;;;;;;;;;;5095184;28;20838;-71
2022/07/09 04:16:27;;;;;;;5.87;2.73;;;;;;;;;;5095384;28;21004;-71
2022/07/09 04:18:55;;;;;;;11.13;3.27;;;;;;;;;;5095228;28;20450;-71
2022/07/09 04:21:22;;;;;;;3.93;3.43;;;;;;;;;;5094976;28;20470;-71
2022/07/09 04:23:49;;;;;;;4.50;3.00;;;;;;;;;;5094757;28;20829;-71
2022/07/09 04:26:18;;;;;;;11.00;3.20;;;;;;;;;;5094838;28;20449;-71
2022/07/09 04:28:45;;;;;;;5.83;2.83;;;;;;;;;;5095053;28;20503;-71
2022/07/09 04:31:15;;;;;;;6.00;3.00;;;;;;;;;;5094717;28;20470;-71
2022/07/09 04:33:43;;;;;;;4.73;2.67;;;;;;;;;;5094625;28;20486;-72
2022/07/09 04:36:10;;;;;;;9.30;3.30;;;;;;;;;;5094815;28;20446;-72
2022/07/09 04:38:38;;;;;;;10.73;3.10;;;;;;;;;;5094730;28;20454;-72
2022/07/09 04:41:05;;;;;;;3.13;2.83;;;;;;;;;;5094685;28;20451;-72
2022/07/09 04:43:32;;;;;;;5.37;3.13;;;;;;;;;;5094718;28;20459;-72
2022/07/09 04:46:00;;;;;;;6.40;3.50;;;;;;;;;;5094818;28;20450;-72
2022/07/09 04:48:28;;;;;;;7.03;3.23;;;;;;;;;;5094467;28;20533;-71
2022/07/09 04:50:56;;;;;;;4.43;3.60;;;;;;;;;;5094144;28;20831;-72
2022/07/09 04:53:23;;;;;;;8.33;3.10;;;;;;;;;;5094382;28;20459;-72
2022/07/09 04:55:50;;;;;;;3.40;3.10;;;;;;;;;;5094287;28;20446;-71
2022/07/09 04:58:17;;;;;;;3.60;2.57;;;;;;;;;;5094257;28;20808;-71
2022/07/09 05:00:44;;;;;;;10.80;4.00;;;;;;;;;;5094366;28;20446;-71
2022/07/09 05:03:12;;;;;;;3.90;2.37;;;;;;;;;;5094141;28;20457;-72
2022/07/09 05:05:40;;;;;;;6.10;2.97;;;;;;;;;;5094056;28;20936;-71
2022/07/09 05:08:07;;;;;;;3.67;3.00;;;;;;;;;;5094252;28;20490;-71
2022/07/09 05:10:34;;;;;;;3.20;2.70;;;;;;;;;;5094052;28;20462;-72
2022/07/09 05:13:02;;;;;;;3.53;2.80;;;;;;;;;;5094068;28;20985;-71
2022/07/09 05:15:30;;;;;;;3.53;2.73;;;;;;;;;;5093806;28;20462;-72
2022/07/09 05:17:57;;;;;;;3.20;2.90;;;;;;;;;;5094226;28;20935;-72
2022/07/09 05:20:25;;;;;;;4.93;2.77;;;;;;;;;;5093748;28;20545;-72
2022/07/09 05:22:53;;;;;;;3.10;2.80;;;;;;;;;;5093394;28;20983;-72
2022/07/09 05:25:20;;;;;;;3.57;3.27;;;;;;;;;;5093521;28;20466;-72
2022/07/09 05:27:48;;;;;;;5.37;2.80;;;;;;;;;;5093866;28;20836;-72
2022/07/09 05:30:16;;;;;;;3.87;3.47;;;;;;;;;;5093905;28;20442;-72
2022/07/09 05:32:43;;;;;;;4.03;3.40;;;;;;;;;;5093769;28;20474;-72
2022/07/09 05:35:12;;;;;;;4.00;3.10;;;;;;;;;;5093208;28;20459;-72
2022/07/09 05:37:42;;;;;;;3.80;2.80;;;;;;;;;;5093196;28;20471;-72
2022/07/09 05:40:12;;;;;;;5.70;3.43;;;;;;;;;;5093612;28;20908;-72
2022/07/09 05:42:39;;;;;;;4.77;4.30;;;;;;;;;;5092711;28;20466;-72
2022/07/09 05:45:07;;;;;;;8.70;3.03;;;;;;;;;;5092869;28;20447;-72
2022/07/09 05:47:34;;;;;;;4.53;3.90;;;;;;;;;;5092950;28;20824;-72
2022/07/09 05:50:01;;;;;;;5.17;3.73;;;;;;;;;;5093438;28;21049;-72
2022/07/09 05:52:28;;;;;;;6.20;3.57;;;;;;;;;;5092804;28;20466;-72
2022/07/09 05:54:55;;;;;;;4.07;3.20;;;;;;;;;;5093153;28;20447;-72
2022/07/09 05:57:24;;;;;;;4.40;3.30;;;;;;;;;;5093065;28;20438;-72
2022/07/09 05:59:51;;;;;;;5.00;3.50;;;;;;;;;;5093223;28;20447;-72
2022/07/09 06:02:19;;;;;;;8.43;3.80;;;;;;;;;;5092835;28;20470;-72
2022/07/09 06:04:46;;;;;;;2.70;2.47;;;;;;;;;;5092937;28;20450;-72
2022/07/09 06:07:13;;;;;;;4.17;3.27;;;;;;;;;;5092816;28;20483;-72
2022/07/09 06:09:40;;;;;;;5.33;3.03;;;;;;;;;;5093018;28;20451;-72
2022/07/09 06:12:08;;;;;;;4.97;2.67;;;;;;;;;;5093094;28;20471;-72
2022/07/09 06:14:36;;;;;;;5.67;3.37;;;;;;;;;;5092655;28;20871;-72
2022/07/09 06:17:06;;;;;;;3.80;3.13;;;;;;;;;;5084114;28;20835;-72
2022/07/09 06:19:33;;;;;;;4.20;2.80;;;;;;;;;;5091551;28;20835;-72
2022/07/09 06:22:00;;;;;;;3.00;2.70;;;;;;;;;;5091583;28;20474;-72
2022/07/09 06:24:28;;;;;;;5.00;2.43;;;;;;;;;;5090514;28;20462;-72
2022/07/09 06:26:55;;;;;;;5.30;2.70;;;;;;;;;;5091371;28;20506;-72
2022/07/09 06:29:22;;;;;;;6.70;4.20;;;;;;;;;;5090397;28;20443;-72
2022/07/09 06:31:50;;;;;;;5.20;2.67;;;;;;;;;;5091215;28;20467;-72
2022/07/09 06:34:18;;;;;;;3.23;2.93;;;;;;;;;;5091683;28;20458;-72
2022/07/09 06:36:45;;;;;;;4.10;2.80;;;;;;;;;;5095755;28;20450;-72
2022/07/09 06:42:04;;;;;;;9.33;3.33;;;;;;;;;;5095675;28;20483;-72
2022/07/09 06:44:31;;;;;;;4.43;2.70;;;;;;;;;;5095409;28;20477;-72
2022/07/09 06:46:59;;;;;;;6.40;2.83;;;;;;;;;;5095420;28;20454;-72
2022/07/09 06:49:27;;;;;;;6.63;2.33;;;;;;;;;;5095593;28;20447;-72
2022/07/09 06:51:54;;;;;;;9.73;2.93;;;;;;;;;;5094994;28;20470;-72
2022/07/09 06:54:21;;;;;;;4.10;2.90;;;;;;;;;;5094874;28;20716;-73
2022/07/09 06:56:48;;;;;;;3.97;3.33;;;;;;;;;;5095220;28;20447;-72
2022/07/09 06:59:16;;;;;;;5.57;3.47;;;;;;;;;;5095282;28;21041;-73
2022/07/09 07:01:43;;;;;;;7.03;2.60;;;;;;;;;;5095055;28;20470;-72
2022/07/09 07:04:12;;;;;;;4.73;3.70;;;;;;;;;;5094875;28;20936;-72
2022/07/09 07:06:40;;;;;;;9.97;3.13;;;;;;;;;;5095316;28;20538;-73
2022/07/09 07:09:07;;;;;;;2.43;2.23;;;;;;;;;;5095159;28;20498;-72
2022/07/09 07:11:34;;;;;;;4.10;2.53;;;;;;;;;;5094945;28;20479;-72
2022/07/09 07:14:02;;;;;;;5.20;2.83;;;;;;;;;;5094709;28;20512;-72
2022/07/09 07:16:29;;;;;;;3.30;2.30;;;;;;;;;;5094745;28;20959;-72
2022/07/09 07:18:56;;;;;;;7.43;2.73;;;;;;;;;;5095100;28;20447;-73
2022/07/09 07:21:25;;;;;;;3.30;2.23;;;;;;;;;;5094755;28;20494;-73
2022/07/09 07:23:52;;;;;;;5.10;2.97;;;;;;;;;;5094438;28;20466;-72
2022/07/09 07:26:19;;;;;;;3.83;2.83;;;;;;;;;;5094722;28;20931;-73
2022/07/09 07:28:46;;;;;;;7.17;2.80;;;;;;;;;;5094575;28;20499;-72
2022/07/09 07:31:13;;;;;;;5.03;3.13;;;;;;;;;;5094415;28;20557;-72
2022/07/09 07:33:40;;;;;;;5.87;2.40;;;;;;;;;;5094527;28;20465;-73
2022/07/09 07:36:08;;;;;;;3.60;2.23;;;;;;;;;;5094625;28;20821;-73
2022/07/09 07:38:36;;;;;;;5.40;3.80;;;;;;;;;;5094449;28;20859;-72
2022/07/09 07:41:03;;;;;;;4.37;3.23;;;;;;;;;;5094394;28;20443;-72
2022/07/09 07:43:31;;;;;;;4.80;2.30;;;;;;;;;;5094085;28;21028;-73
2022/07/09 07:45:58;;;;;;;4.43;2.13;;;;;;;;;;5093694;28;20461;-72
2022/07/09 07:48:27;;;;;;;6.33;2.67;;;;;;;;;;5093913;28;20482;-73
2022/07/09 07:50:54;;;;;;;3.67;2.60;;;;;;;;;;5093143;28;20471;-73
2022/07/09 07:53:22;;;;;;;5.20;2.20;;;;;;;;;;5094843;28;20458;-73
2022/07/09 07:55:52;;;;;;;4.57;2.80;;;;;;;;;;5095487;28;20455;-73
2022/07/09 07:58:19;;;;;;;4.43;2.73;;;;;;;;;;5094860;28;20496;-72
2022/07/09 08:00:46;;;;;;;5.13;2.13;;;;;;;;;;5093701;28;20474;-73
2022/07/09 08:03:13;;;;;;;3.60;2.40;;;;;;;;;;5094022;28;20529;-73
2022/07/09 08:05:40;;;;;;;5.37;2.33;;;;;;;;;;5094081;28;20458;-72
2022/07/09 08:08:08;;;;;;;2.43;2.23;;;;;;;;;;5093548;28;20493;-73
2022/07/09 08:10:35;;;;;;;3.70;2.23;;;;;;;;;;5094026;28;20455;-72
2022/07/09 08:13:03;;;;;;;2.80;2.40;;;;;;;;;;5093999;28;20466;-73
2022/07/09 08:15:30;;;;;;;2.77;2.20;;;;;;;;;;5093330;28;20451;-73
2022/07/09 08:17:57;;;;;;;3.13;2.83;;;;;;;;;;5093816;28;20445;-72
2022/07/09 08:20:25;;;;;;;2.60;1.90;;;;;;;;;;5093708;28;20459;-72
2022/07/09 08:22:52;;;;;;;3.00;1.67;;;;;;;;;;5093703;28;20845;-73
2022/07/09 08:25:19;;;;;;;5.17;2.57;;;;;;;;;;5093730;28;21008;-72
2022/07/09 08:27:48;;;;;;;3.90;2.50;;;;;;;;;;5094646;28;20453;-72
2022/07/09 08:30:17;;;;;;;5.23;2.30;;;;;;;;;;5094438;28;20955;-73
2022/07/09 08:32:44;;;;;;;3.70;2.97;;;;;;;;;;5094582;28;20466;-73
2022/07/09 08:35:11;;;;;;;4.63;2.20;;;;;;;;;;5080008;28;20559;-73
2022/07/09 08:37:38;;;;;;;4.67;2.43;;;;;;;;;;5074544;28;20447;-73
2022/07/09 08:40:06;;;;;;;4.80;3.00;;;;;;;;;;5074379;28;20959;-73
2022/07/09 08:42:33;;;;;;;3.80;2.00;;;;;;;;;;5074270;28;20475;-73
2022/07/09 08:45:00;;;;;;;4.00;2.00;;;;;;;;;;5074230;28;20448;-73
2022/07/09 08:47:29;;;;;;;3.40;1.80;;;;;;;;;;5074438;28;20456;-73
2022/07/09 08:49:56;;;;;;;3.80;2.40;;;;;;;;;;5074285;28;20491;-72
2022/07/09 08:52:24;;;;;;;4.60;2.40;;;;;;;;;;5073833;28;20475;-73
2022/07/09 08:54:53;;;;;;;5.97;2.87;;;;;;;;;;5074105;28;20456;-73
2022/07/09 08:57:20;;;;;;;3.73;1.87;;;;;;;;;;5073382;28;20459;-73
2022/07/09 08:59:48;;;;;;;4.47;2.20;;;;;;;;;;5074150;28;20934;-73
2022/07/09 09:02:15;;;;;;;2.60;1.90;;;;;;;;;;5074009;28;20475;-73
2022/07/09 09:04:43;;;;;;;7.80;2.03;;;;;;;;;;5073907;28;20447;-73
2022/07/09 09:07:14;;;;;;;3.13;2.30;;;;;;;;;;5073975;28;20967;-73
2022/07/09 09:09:42;;;;;;;3.00;2.30;;;;;;;;;;5073923;28;20487;-73
2022/07/09 09:12:09;;;;;;;2.57;1.87;;;;;;;;;;5073722;28;20525;-73
2022/07/09 09:14:36;;;;;;;5.17;2.03;;;;;;;;;;5073620;28;20447;-73
2022/07/09 09:17:06;;;;;;;4.20;2.43;;;;;;;;;;5074041;28;20816;-73
2022/07/09 09:19:33;;;;;;;2.37;1.63;;;;;;;;;;5073926;28;20448;-75
2022/07/09 09:22:02;;;;;;;5.33;2.90;;;;;;;;;;5073575;28;20471;-74
2022/07/09 09:24:29;;;;;;;4.53;2.10;;;;;;;;;;5073290;28;20570;-73
2022/07/09 09:26:59;;;;;;;3.27;2.10;;;;;;;;;;5073664;28;20463;-73
2022/07/09 09:29:27;;;;;;;7.47;1.90;;;;;;;;;;5073570;28;20491;-74
2022/07/09 09:31:54;;;;;;;2.73;1.90;;;;;;;;;;5073423;28;20981;-74
2022/07/09 09:34:22;;;;;;;6.37;2.43;;;;;;;;;;5073227;28;20824;-74
2022/07/09 09:36:51;;;;;;;3.60;2.20;;;;;;;;;;5073634;28;20456;-71
2022/07/09 09:39:20;;;;;;;3.57;1.77;;;;;;;;;;5073334;28;20451;-73
2022/07/09 09:41:48;;;;;;;4.13;2.20;;;;;;;;;;5073805;28;20463;-73
2022/07/09 09:44:16;;;;;;;4.93;2.40;;;;;;;;;;5073144;28;20462;-75
2022/07/09 09:46:44;;;;;;;5.73;2.10;;;;;;;;;;5073324;28;20455;-75
2022/07/09 09:49:14;;;;;;;3.30;2.27;;;;;;;;;;5073097;28;20490;-74
2022/07/09 09:51:45;;;;;;;3.00;1.63;;;;;;;;;;5073102;28;20854;-75
2022/07/09 09:54:13;;;;;;;3.17;2.17;;;;;;;;;;5073036;28;20452;-75
2022/07/09 09:56:41;;;;;;;6.40;2.20;;;;;;;;;;5073199;28;20444;-73
2022/07/09 09:59:09;;;;;;;4.47;2.37;;;;;;;;;;5073173;28;20451;-73
2022/07/09 10:01:36;;;;;;;9.30;2.30;;;;;;;;;;5073025;28;20471;-73
2022/07/09 10:04:03;;;;;;;5.47;1.80;;;;;;;;;;5072953;28;20979;-73
2022/07/09 10:06:30;;;;;;;2.93;1.80;;;;;;;;;;5073103;28;20463;-73
2022/07/09 10:08:57;;;;;;;3.43;2.00;;;;;;;;;;5072839;28;20495;-73
2022/07/09 10:11:25;;;;;;;3.73;1.60;;;;;;;;;;5072824;28;20476;-73
2022/07/09 10:13:54;;;;;;;2.90;1.77;;;;;;;;;;5072863;28;20456;-73
2022/07/09 10:16:32;;;;;;;2.60;1.80;;;;;;;;;;5072793;28;20463;-74
2022/07/09 10:18:59;;;;;;;7.70;2.10;;;;;;;;;;5072967;28;20451;-73
2022/07/09 10:21:37;;;;;;;2.90;1.57;;;;;;;;;;5072864;28;20472;-73
2022/07/09 10:24:04;;;;;;;3.70;1.80;;;;;;;;;;5072788;28;20463;-73
2022/07/09 10:26:47;;;;;;;2.23;1.53;;;;;;;;;;5073170;28;20448;-73
2022/07/09 10:29:26;;;;;;;2.00;1.47;;;;;;;;;;5072651;28;20536;-73
2022/07/09 10:31:53;;;;;;;4.33;2.00;;;;;;;;;;5073046;28;20476;-73
2022/07/09 10:34:30;;;;;;;2.50;1.87;;;;;;;;;;5072674;28;20819;-74
2022/07/09 10:36:58;;;;;;;4.57;1.90;;;;;;;;;;5072734;28;20456;-73
2022/07/09 10:39:25;;;;;;;4.80;1.93;;;;;;;;;;5072756;28;20459;-73
2022/07/09 10:42:00;;;;;;;5.70;2.37;;;;;;;;;;5073427;28;20832;-73
2022/07/09 10:44:29;;;;;;;4.27;1.80;;;;;;;;;;5072568;28;20451;-73
2022/07/09 10:46:59;;;;;;;2.87;1.60;;;;;;;;;;5072729;28;20447;-73
2022/07/09 10:49:27;;;;;;;3.83;2.60;;;;;;;;;;5072676;28;20846;-73
2022/07/09 10:51:57;;;;;;;3.73;2.50;;;;;;;;;;5072029;28;20524;-73
2022/07/09 10:54:24;;;;;;;2.47;2.03;;;;;;;;;;5072533;28;20451;-73
2022/07/09 10:56:52;;;;;;;3.20;2.07;;;;;;;;;;5072860;28;20826;-73
2022/07/09 10:59:19;;;;;;;3.33;1.93;;;;;;;;;;5072642;28;20452;-74
2022/07/09 11:01:47;;;;;;;2.50;1.50;;;;;;;;;;5072809;28;20983;-74
2022/07/09 11:04:24;;;;;;;4.27;2.10;;;;;;;;;;5072116;28;20460;-74
2022/07/09 11:06:51;;;;;;;3.90;2.40;;;;;;;;;;5072682;28;20447;-73
2022/07/09 11:09:19;;;;;;;4.83;2.30;;;;;;;;;;5072259;28;20483;-73
2022/07/09 11:11:47;;;;;;;5.57;2.27;;;;;;;;;;5072717;28;20830;-73
2022/07/09 11:14:15;;;;;;;4.13;1.60;;;;;;;;;;5072147;28;20452;-73
2022/07/09 11:16:42;;;;;;;4.27;1.97;;;;;;;;;;5072318;28;20448;-73
2022/07/09 11:19:17;;;;;;;3.73;1.90;;;;;;;;;;5072500;28;20454;-74
2022/07/09 11:21:44;;;;;;;4.97;1.77;;;;;;;;;;5075182;28;20554;-73
2022/07/09 11:24:15;;;;;;;4.07;2.10;;;;;;;;;;5075698;28;20464;-74
2022/07/09 11:26:42;;;;;;;3.00;1.90;;;;;;;;;;5076055;28;20521;-74
2022/07/09 11:29:10;;;;;;;4.90;1.90;;;;;;;;;;5075848;28;20522;-73
2022/07/09 11:31:37;;;;;;;2.73;2.00;;;;;;;;;;5075954;28;20490;-73
2022/07/09 11:34:13;;;;;;;5.60;1.73;;;;;;;;;;5075645;28;20456;-74
2022/07/09 11:36:42;;;;;;;3.03;1.90;;;;;;;;;;5075897;28;20515;-74
2022/07/09 11:39:09;;;;;;;3.97;1.97;;;;;;;;;;5075662;28;20447;-73
2022/07/09 11:41:43;;;;;;;3.50;2.00;;;;;;;;;;5075442;28;20471;-74
2022/07/09 11:44:11;;;;;;;4.57;1.80;;;;;;;;;;5075449;28;20447;-74
2022/07/09 11:46:39;;;;;;;2.97;1.70;;;;;;;;;;5070065;28;20460;-74
2022/07/09 11:49:15;;;;;;;3.60;1.70;;;;;;;;;;5090686;28;20483;-73
2022/07/09 11:51:44;;;;;;;2.17;1.80;;;;;;;;;;5095385;28;20840;-73
2022/07/09 11:54:11;;;;;;;10.10;2.43;;;;;;;;;;5095146;28;20454;-73
2022/07/09 11:56:43;;;;;;;2.57;1.87;;;;;;;;;;5095734;28;20446;-73
2022/07/09 11:59:10;;;;;;;3.40;2.13;;;;;;;;;;5095480;28;20850;-73
2022/07/09 12:01:38;;;;;;;3.60;2.20;;;;;;;;;;5095354;28;20471;-73
2022/07/09 12:04:05;;;;;;;3.57;1.90;;;;;;;;;;5095253;28;20454;-73
2022/07/09 12:06:32;;;;;;;2.33;1.73;;;;;;;;;;5095407;28;20457;-73
2022/07/09 12:09:01;;;;;;;4.63;2.43;;;;;;;;;;5095179;28;20453;-73
2022/07/09 12:11:29;;;;;;;1.90;1.40;;;;;;;;;;5095385;28;20853;-73
2022/07/09 12:13:56;;;;;;;2.80;1.90;;;;;;;;;;5095214;28;20457;-73
2022/07/09 12:16:24;;;;;;;3.20;2.73;;;;;;;;;;5095121;28;20876;-73
2022/07/09 12:18:51;;;;;;;5.00;2.53;;;;;;;;;;5095327;28;20995;-73
2022/07/09 12:21:19;;;;;;;2.50;1.60;;;;;;;;;;5094851;28;20475;-74
2022/07/09 12:23:46;;;;;;;2.30;1.80;;;;;;;;;;5094782;28;20466;-73
2022/07/09 12:26:15;;;;;;;5.10;1.80;;;;;;;;;;5095026;28;20508;-73
2022/07/09 12:28:42;;;;;;;5.80;1.77;;;;;;;;;;5095190;28;20446;-73
2022/07/09 12:31:09;;;;;;;3.23;1.73;;;;;;;;;;5094693;28;20497;-73
2022/07/09 12:33:36;;;;;;;5.20;2.37;;;;;;;;;;5093575;28;20940;-73
2022/07/09 12:36:03;;;;;;;2.83;2.50;;;;;;;;;;5094927;28;20450;-73
2022/07/09 12:38:30;;;;;;;4.80;2.53;;;;;;;;;;5094751;28;20462;-73
2022/07/09 12:40:58;;;;;;;2.03;1.80;;;;;;;;;;5094886;28;20447;-73
2022/07/09 12:43:26;;;;;;;3.20;1.70;;;;;;;;;;5094660;28;20447;-73
2022/07/09 12:45:53;;;;;;;3.40;2.03;;;;;;;;;;5094672;28;20454;-73
2022/07/09 12:48:20;;;;;;;3.90;1.70;;;;;;;;;;5094544;28;20449;-73
2022/07/09 12:50:48;;;;;;;4.33;1.70;;;;;;;;;;5094146;28;20490;-74
2022/07/09 12:53:15;;;;;;;3.50;1.90;;;;;;;;;;5094581;28;20454;-73
2022/07/09 12:55:42;;;;;;;5.23;1.90;;;;;;;;;;5094551;28;20967;-73
2022/07/09 12:58:09;;;;;;;3.70;1.70;;;;;;;;;;5094482;28;20454;-73
2022/07/09 13:00:38;;;;;;;4.03;1.50;;;;;;;;;;5094335;28;20461;-73
2022/07/09 13:03:05;;;;;;;2.30;1.50;;;;;;;;;;5094308;28;20470;-74
2022/07/09 13:05:32;;;;;;;2.60;1.80;;;;;;;;;;5094121;28;20455;-73
2022/07/09 13:08:00;;;;;;;2.53;1.70;;;;;;;;;;5094255;28;20936;-73
2022/07/09 13:10:27;;;;;;;2.23;1.33;;;;;;;;;;5093985;28;20505;-73
2022/07/09 13:12:54;;;;;;;6.73;1.80;;;;;;;;;;5094202;28;20979;-73
2022/07/09 13:15:22;;;;;;;2.10;1.50;;;;;;;;;;5093811;28;20446;-73
2022/07/09 13:17:50;;;;;;;3.30;1.67;;;;;;;;;;5094052;28;20455;-73
2022/07/09 13:20:18;;;;;;;8.10;1.60;;;;;;;;;;5093903;28;20446;-73
2022/07/09 13:22:45;;;;;;;2.70;1.97;;;;;;;;;;5094062;28;20463;-73
2022/07/09 13:25:12;;;;;;;6.03;1.80;;;;;;;;;;5093567;28;20462;-73
2022/07/09 13:27:39;;;;;;;2.93;1.70;;;;;;;;;;5094098;28;20954;-73
2022/07/09 13:30:07;;;;;;;3.00;1.63;;;;;;;;;;5093769;28;20490;-73
2022/07/09 13:32:34;;;;;;;3.17;1.50;;;;;;;;;;5093803;28;20527;-72
2022/07/09 13:35:02;;;;;;;1.90;1.70;;;;;;;;;;5093669;28;20826;-72
2022/07/09 13:37:30;;;;;;;3.20;1.67;;;;;;;;;;5093736;28;20454;-72
2022/07/09 13:39:58;;;;;;;6.53;2.30;;;;;;;;;;5093637;28;20446;-72
2022/07/09 13:42:25;;;;;;;3.33;1.73;;;;;;;;;;5093532;28;20469;-72
2022/07/09 13:44:52;;;;;;;2.43;1.50;;;;;;;;;;5093509;28;20450;-72
2022/07/09 13:47:19;;;;;;;3.40;1.80;;;;;;;;;;5093580;28;20454;-72
2022/07/09 13:49:46;;;;;;;1.60;1.43;;;;;;;;;;5093557;28;20517;-72
2022/07/09 13:52:15;;;;;;;3.70;1.73;;;;;;;;;;5093227;28;20470;-72
2022/07/09 13:54:42;;;;;;;4.20;2.03;;;;;;;;;;5093301;28;20450;-73
2022/07/09 13:57:09;;;;;;;2.87;1.90;;;;;;;;;;5093408;28;20457;-73
2022/07/09 13:59:36;;;;;;;4.00;1.83;;;;;;;;;;5093621;28;20454;-72
2022/07/09 14:02:03;;;;;;;1.90;1.47;;;;;;;;;;5093707;28;20471;-72
2022/07/09 14:04:31;;;;;;;3.50;1.57;;;;;;;;;;5093266;28;20450;-72
2022/07/09 14:06:58;;;;;;;1.83;1.53;;;;;;;;;;5093691;28;20951;-72
2022/07/09 14:09:26;;;;;;;4.40;2.10;;;;;;;;;;5093226;28;20447;-72
2022/07/09 14:11:53;;;;;;;2.27;1.70;;;;;;;;;;5093212;28;20818;-72
2022/07/09 14:14:20;;;;;;;4.20;1.70;;;;;;;;;;5093014;28;20449;-72
2022/07/09 14:16:47;;;;;;;5.20;1.50;;;;;;;;;;5093240;28;20450;-72
2022/07/09 14:19:15;;;;;;;3.27;1.70;;;;;;;;;;5093347;28;20462;-72
2022/07/09 14:21:42;;;;;;;2.00;1.60;;;;;;;;;;5093176;28;20469;-72
2022/07/09 14:24:09;;;;;;;2.43;1.70;;;;;;;;;;5093139;28;20982;-72
2022/07/09 14:26:37;;;;;;;3.60;1.80;;;;;;;;;;5093428;28;20541;-72
2022/07/09 14:29:04;;;;;;;4.00;1.53;;;;;;;;;;5093172;28;20447;-72
2022/07/09 14:31:31;;;;;;;3.63;2.17;;;;;;;;;;5093027;28;20482;-72
2022/07/09 14:33:58;;;;;;;5.23;2.50;;;;;;;;;;5092966;28;20457;-72
2022/07/09 14:36:26;;;;;;;4.40;2.47;;;;;;;;;;5093098;28;20545;-72
2022/07/09 14:38:53;;;;;;;2.80;2.20;;;;;;;;;;5093137;28;20442;-72
2022/07/09 14:41:20;;;;;;;4.37;1.90;;;;;;;;;;5093253;28;20835;-72
2022/07/09 14:43:48;;;;;;;4.43;2.30;;;;;;;;;;5093146;28;20448;-72
2022/07/09 14:46:15;;;;;;;7.20;2.27;;;;;;;;;;5093063;28;20538;-72
2022/07/09 14:48:43;;;;;;;6.70;1.93;;;;;;;;;;5093305;28;20825;-72